Terminal Aerodrome Forecast
Issued by NWS

Home | Current Version | Previous Version | Text Only | Print | Product List | Glossary On
Versions: 1 2 3 4 5 6 7 8 9 10 11 12 13 14 15 16 17 18 19 20 21 22
000
FTUS46 KOTX 241131
TAFMWH
TAF
KMWH 241131Z 2412/2512 02005KT P6SM -RA BKN040 OVC050
     FM241400 03005KT 6SM -RA BR BKN022 OVC040
     FM241800 17004KT P6SM BKN015 OVC030
     FM242300 19009G17KT P6SM VCSH BKN050 OVC100
     FM250200 18005KT P6SM BKN100
     FM250600 18004KT P6SM SCT250=

USA.gov is the U.S. government's official web portal to all federal, state and local government web resources and services.